Time;durP1;ratioP1;P1;durP2;ratioP2;P2;SDS_P1;SDS_P2;PMS_P1;PMS_P2;Temp;Humidity;BMP_temperature;BMP_pressure;BME280_temperature;BME280_humidity;BME280_pressure;Samples;Min_cycle;Max_cycle;Signal;HPM_P1;HPM_P2
2022/09/25 00:01:22;;;;;;;;;;;12.00;99.90;;;;;;4984330;28;19936;-82
2022/09/25 00:03:47;;;;;;;;;;;11.90;99.90;;;;;;4985253;28;19926;-82
2022/09/25 00:06:14;;;;;;;;;;;11.90;99.90;;;;;;4985392;28;19948;-81
2022/09/25 00:08:40;;;;;;;;;;;11.90;99.90;;;;;;4966807;28;19933;-82
2022/09/25 00:11:07;;;;;;;;;;;11.90;99.90;;;;;;4985473;28;19922;-80
2022/09/25 00:13:32;;;;;;;;;;;11.80;99.90;;;;;;4968988;28;19980;-82
2022/09/25 00:15:58;;;;;;;;;;;11.90;99.90;;;;;;4988201;28;19930;-80
2022/09/25 00:21:11;;;;;;;;;;;11.80;99.90;;;;;;4988930;28;19987;-79
2022/09/25 00:23:37;;;;;;;;;;;11.70;99.90;;;;;;4987889;28;19932;-83
2022/09/25 00:26:04;;;;;;;;;;;11.70;99.90;;;;;;4987970;28;19948;-83
2022/09/25 00:28:30;;;;;;;;;;;11.70;99.90;;;;;;4987281;28;20020;-82
2022/09/25 00:30:56;;;;;;;;;;;11.60;99.90;;;;;;4989220;28;19980;-83
2022/09/25 00:33:22;;;;;;;;;;;11.60;99.90;;;;;;4988441;28;19929;-82
2022/09/25 00:35:48;;;;;;;;;;;11.60;99.90;;;;;;4988688;28;19926;-83
2022/09/25 00:38:13;;;;;;;;;;;11.60;99.90;;;;;;4986886;28;19926;-81
2022/09/25 00:40:39;;;;;;;;;;;11.60;99.90;;;;;;4988491;28;19926;-81
2022/09/25 00:43:08;;;;;;;;;;;11.50;99.90;;;;;;4987525;28;19962;-81
2022/09/25 00:45:33;;;;;;;;;;;11.50;99.90;;;;;;4987021;28;19925;-82
2022/09/25 00:48:05;;;;;;;;;;;11.50;99.90;;;;;;4987966;28;19977;-80
2022/09/25 00:50:42;;;;;;;;;;;11.50;99.90;;;;;;4986617;28;19933;-83
2022/09/25 00:53:13;;;;;;;;;;;11.40;99.90;;;;;;5002683;28;20547;-82
2022/09/25 00:55:41;;;;;;;;;;;11.40;99.90;;;;;;4986630;28;19925;-83
2022/09/25 00:58:07;;;;;;;;;;;11.30;99.90;;;;;;4986916;28;19926;-82
2022/09/25 01:00:33;;;;;;;;;;;11.20;99.90;;;;;;4987456;28;19926;-82
2022/09/25 01:02:58;;;;;;;;;;;11.20;99.90;;;;;;4988532;28;19932;-78
2022/09/25 01:05:26;;;;;;;;;;;11.20;99.90;;;;;;4987971;28;19971;-82
2022/09/25 01:07:53;;;;;;;;;;;11.10;99.90;;;;;;4986841;28;19972;-81
2022/09/25 01:10:19;;;;;;;;;;;11.10;99.90;;;;;;4986378;28;20408;-78
2022/09/25 01:12:47;;;;;;;;;;;11.00;99.90;;;;;;4986505;28;19979;-83
2022/09/25 01:15:13;;;;;;;;;;;11.00;99.90;;;;;;5003026;28;19932;-83
2022/09/25 01:17:49;;;;;;;;;;;10.90;99.90;;;;;;4987286;28;20413;-82
2022/09/25 01:20:22;;;;;;;;;;;10.90;99.90;;;;;;4986746;28;20347;-83
2022/09/25 01:22:47;;;;;;;;;;;10.90;99.90;;;;;;4966041;28;19926;-82
2022/09/25 01:25:25;;;;;;;;;;;10.90;99.90;;;;;;4983409;28;20428;-82
2022/09/25 01:28:09;;;;;;;;;;;10.90;99.90;;;;;;4986231;28;19926;-83
2022/09/25 01:30:38;;;;;;;;;;;10.90;99.90;;;;;;4986076;28;19932;-79
2022/09/25 01:33:08;;;;;;;;;;;10.90;99.90;;;;;;4987684;28;19953;-79
2022/09/25 01:35:36;;;;;;;;;;;11.00;99.90;;;;;;4987390;28;20038;-82
2022/09/25 01:38:21;;;;;;;;;;;11.00;99.90;;;;;;4985756;28;19929;-82
2022/09/25 01:40:52;;;;;;;;;;;11.10;99.90;;;;;;4987291;28;20359;-82
2022/09/25 01:43:25;;;;;;;;;;;11.10;99.90;;;;;;4986627;28;19925;-81
2022/09/25 01:46:03;;;;;;;;;;;11.10;99.90;;;;;;4985955;28;20332;-82
2022/09/25 01:48:30;;;;;;;;;;;11.10;99.90;;;;;;4986870;28;20606;-82
2022/09/25 01:51:01;;;;;;;;;;;11.10;99.90;;;;;;5002756;28;19926;-79
2022/09/25 01:53:31;;;;;;;;;;;11.10;99.90;;;;;;4985182;28;19980;-81
2022/09/25 01:55:59;;;;;;;;;;;11.10;99.90;;;;;;4969906;28;19930;-80
2022/09/25 01:58:32;;;;;;;;;;;11.10;99.90;;;;;;4986393;28;19961;-80
2022/09/25 02:01:03;;;;;;;;;;;11.10;99.90;;;;;;4986033;28;20554;-82
2022/09/25 02:03:35;;;;;;;;;;;11.10;99.90;;;;;;4970379;28;19990;-82
2022/09/25 02:06:03;;;;;;;;;;;11.10;99.90;;;;;;4986966;28;19926;-82
2022/09/25 02:08:42;;;;;;;;;;;11.00;99.90;;;;;;4984865;28;20037;-82
2022/09/25 02:11:08;;;;;;;;;;;11.10;99.90;;;;;;4986451;28;19922;-81
2022/09/25 02:13:40;;;;;;;;;;;11.10;99.90;;;;;;4986816;28;19926;-81
2022/09/25 02:16:31;;;;;;;;;;;11.10;99.90;;;;;;4986998;28;20029;-82
2022/09/25 02:21:48;;;;;;;;;;;11.00;99.90;;;;;;4986592;28;19926;-82
2022/09/25 02:24:32;;;;;;;;;;;10.90;99.90;;;;;;4984576;28;20380;-80
2022/09/25 02:26:58;;;;;;;;;;;10.90;99.90;;;;;;4986828;28;19956;-83
2022/09/25 02:29:23;;;;;;;;;;;11.00;99.90;;;;;;4985415;28;19926;-80
2022/09/25 02:31:52;;;;;;;;;;;10.90;99.90;;;;;;4986109;28;19956;-81
2022/09/25 02:34:18;;;;;;;;;;;10.90;99.90;;;;;;4986276;28;19937;-81
2022/09/25 02:36:43;;;;;;;;;;;10.90;99.90;;;;;;4984702;28;19926;-82
2022/09/25 02:39:10;;;;;;;;;;;10.80;99.90;;;;;;4985792;28;19953;-81
2022/09/25 02:41:55;;;;;;;;;;;10.90;99.90;;;;;;5000733;28;20381;-80
2022/09/25 02:44:30;;;;;;;;;;;10.80;99.90;;;;;;4985938;28;19937;-82
2022/09/25 02:47:02;;;;;;;;;;;10.80;99.90;;;;;;4985382;28;19933;-81
2022/09/25 02:49:33;;;;;;;;;;;10.80;99.90;;;;;;4985498;28;19937;-82
2022/09/25 02:52:08;;;;;;;;;;;10.80;99.90;;;;;;4985683;28;20434;-80
2022/09/25 02:54:39;;;;;;;;;;;10.80;99.90;;;;;;4983753;28;19930;-83
2022/09/25 02:57:16;;;;;;;;;;;10.90;99.90;;;;;;4984975;28;19925;-82
2022/09/25 02:59:46;;;;;;;;;;;10.90;99.90;;;;;;4968351;28;20376;-81
2022/09/25 03:02:13;;;;;;;;;;;11.00;99.90;;;;;;4984765;28;19929;-81
2022/09/25 03:04:40;;;;;;;;;;;11.10;99.90;;;;;;4984629;28;19926;-81
2022/09/25 03:07:05;;;;;;;;;;;11.10;99.90;;;;;;4984662;28;19932;-80
2022/09/25 03:09:34;;;;;;;;;;;11.20;99.90;;;;;;4984992;28;19926;-82
2022/09/25 03:12:00;;;;;;;;;;;11.20;99.90;;;;;;4986038;28;20382;-79
2022/09/25 03:14:26;;;;;;;;;;;11.20;99.90;;;;;;4969405;28;19926;-81
2022/09/25 03:16:55;;;;;;;;;;;11.20;99.90;;;;;;4968206;28;20403;-81
2022/09/25 03:19:21;;;;;;;;;;;11.30;99.90;;;;;;4984531;28;19922;-80
2022/09/25 03:21:47;;;;;;;;;;;11.30;99.90;;;;;;4984731;28;19948;-79
2022/09/25 03:24:13;;;;;;;;;;;11.20;99.90;;;;;;4983887;28;19922;-81
2022/09/25 03:26:39;;;;;;;;;;;11.20;99.90;;;;;;4966887;28;20025;-80
2022/09/25 03:29:05;;;;;;;;;;;11.30;99.90;;;;;;4986011;28;20012;-81
2022/09/25 03:31:30;;;;;;;;;;;11.20;99.90;;;;;;4985327;28;20436;-81
2022/09/25 03:33:56;;;;;;;;;;;11.20;99.90;;;;;;4986128;28;19933;-80
2022/09/25 03:36:23;;;;;;;;;;;11.20;99.90;;;;;;4985922;28;19929;-80
2022/09/25 03:38:50;;;;;;;;;;;11.20;99.90;;;;;;4984349;28;19934;-81
2022/09/25 03:41:18;;;;;;;;;;;11.10;99.90;;;;;;4985869;28;19980;-80
2022/09/25 03:43:46;;;;;;;;;;;11.10;99.90;;;;;;4985308;28;20012;-79
2022/09/25 03:46:13;;;;;;;;;;;11.10;99.90;;;;;;4985896;28;19929;-80
2022/09/25 03:48:39;;;;;;;;;;;11.10;99.90;;;;;;5001693;28;19953;-81
2022/09/25 03:51:05;;;;;;;;;;;11.10;99.90;;;;;;4989064;28;20490;-80
2022/09/25 03:53:32;;;;;;;;;;;11.10;99.90;;;;;;4988334;28;19930;-79
2022/09/25 03:56:02;;;;;;;;;;;11.10;99.90;;;;;;4989961;28;20343;-79
2022/09/25 03:58:28;;;;;;;;;;;11.10;99.90;;;;;;4989921;28;20308;-80
2022/09/25 04:00:57;;;;;;;;;;;11.20;99.90;;;;;;4988890;28;20349;-80
2022/09/25 04:03:23;;;;;;;;;;;11.10;99.90;;;;;;4999267;28;20448;-80
2022/09/25 04:05:49;;;;;;;;;;;11.10;99.90;;;;;;4969456;28;20014;-80
2022/09/25 04:08:15;;;;;;;;;;;11.10;99.90;;;;;;4982543;28;20020;-77
2022/09/25 04:10:40;;;;;;;;;;;11.10;99.90;;;;;;4986913;28;20359;-80
2022/09/25 04:13:08;;;;;;;;;;;11.10;99.90;;;;;;4973668;28;20514;-80
2022/09/25 04:15:33;;;;;;;;;;;11.10;99.90;;;;;;4988919;28;19959;-80
2022/09/25 04:17:59;;;;;;;;;;;11.10;99.90;;;;;;4989493;28;19922;-80
2022/09/25 04:20:24;;;;;;;;;;;11.10;99.90;;;;;;4989463;28;19925;-80
2022/09/25 04:22:49;;;;;;;;;;;11.10;99.90;;;;;;4987918;28;19929;-80
2022/09/25 04:25:15;;;;;;;;;;;11.00;99.90;;;;;;4988813;28;19921;-80
2022/09/25 04:27:42;;;;;;;;;;;11.00;99.90;;;;;;4988276;28;19925;-79
2022/09/25 04:30:09;;;;;;;;;;;11.00;99.90;;;;;;4988948;28;19922;-80
2022/09/25 04:35:19;;;;;;;;;;;11.00;99.90;;;;;;4988790;28;19932;-77
2022/09/25 04:37:44;;;;;;;;;;;11.10;99.90;;;;;;4987566;28;19925;-80
2022/09/25 04:40:10;;;;;;;;;;;11.10;99.90;;;;;;4988734;28;19933;-80
2022/09/25 04:42:35;;;;;;;;;;;11.10;99.90;;;;;;4987885;28;19933;-79
2022/09/25 04:45:01;;;;;;;;;;;11.10;99.90;;;;;;4987659;28;20301;-80
2022/09/25 04:47:30;;;;;;;;;;;11.10;99.90;;;;;;4988586;28;19936;-79
2022/09/25 04:49:55;;;;;;;;;;;11.10;99.90;;;;;;4988647;28;19925;-79
2022/09/25 04:52:21;;;;;;;;;;;11.10;99.90;;;;;;4985787;28;20373;-80
2022/09/25 04:54:47;;;;;;;;;;;11.10;99.90;;;;;;4986609;28;19926;-80
2022/09/25 04:57:16;;;;;;;;;;;11.20;99.90;;;;;;5002073;28;19984;-79
2022/09/25 04:59:41;;;;;;;;;;;11.10;99.90;;;;;;4986414;28;20034;-80
2022/09/25 05:02:07;;;;;;;;;;;11.10;99.90;;;;;;4970683;28;19958;-80
2022/09/25 05:04:32;;;;;;;;;;;11.10;99.90;;;;;;4986381;28;19957;-79
2022/09/25 05:06:58;;;;;;;;;;;11.10;99.90;;;;;;4987142;28;19932;-80
2022/09/25 05:09:24;;;;;;;;;;;11.10;99.90;;;;;;4987255;28;19933;-80
2022/09/25 05:11:49;;;;;;;;;;;11.10;99.90;;;;;;5002404;28;20402;-79
2022/09/25 05:14:15;;;;;;;;;;;11.10;99.90;;;;;;4987749;28;20391;-80
2022/09/25 05:16:41;;;;;;;;;;;11.10;99.90;;;;;;4986625;28;19926;-78
2022/09/25 05:19:06;;;;;;;;;;;11.00;99.90;;;;;;4986714;28;19953;-80
2022/09/25 05:21:32;;;;;;;;;;;11.10;99.90;;;;;;4986517;28;19953;-80
2022/09/25 05:23:57;;;;;;;;;;;11.00;99.90;;;;;;4985979;28;19922;-80
2022/09/25 05:26:23;;;;;;;;;;;11.00;99.90;;;;;;4987392;28;20388;-80
2022/09/25 05:28:49;;;;;;;;;;;11.00;99.90;;;;;;4987274;28;20005;-78
2022/09/25 05:31:15;;;;;;;;;;;11.00;99.90;;;;;;4987728;28;20009;-78
2022/09/25 05:33:42;;;;;;;;;;;11.00;99.90;;;;;;4985621;28;19984;-79
2022/09/25 05:36:08;;;;;;;;;;;10.90;99.90;;;;;;4987417;28;19929;-79
2022/09/25 05:38:34;;;;;;;;;;;11.00;99.90;;;;;;4984809;28;20065;-79
2022/09/25 05:41:02;;;;;;;;;;;10.90;99.90;;;;;;4987762;28;19972;-81
2022/09/25 05:43:27;;;;;;;;;;;10.90;99.90;;;;;;4987454;28;20314;-80
2022/09/25 05:45:54;;;;;;;;;;;10.80;99.90;;;;;;4987244;28;20020;-81
2022/09/25 05:48:19;;;;;;;;;;;10.80;99.90;;;;;;4987341;28;19929;-80
2022/09/25 05:50:49;;;;;;;;;;;10.80;99.90;;;;;;4987043;28;20459;-80
2022/09/25 05:53:15;;;;;;;;;;;10.80;99.90;;;;;;4986479;28;19926;-79
2022/09/25 05:55:40;;;;;;;;;;;10.80;99.90;;;;;;4987050;28;20262;-80
2022/09/25 05:58:06;;;;;;;;;;;10.80;99.90;;;;;;4986845;28;19983;-79
2022/09/25 06:00:32;;;;;;;;;;;10.80;99.90;;;;;;4984989;28;19926;-80
2022/09/25 06:02:58;;;;;;;;;;;10.70;99.90;;;;;;4985356;28;19996;-79
2022/09/25 06:05:23;;;;;;;;;;;10.70;99.90;;;;;;4986665;28;20599;-80
2022/09/25 06:07:52;;;;;;;;;;;10.60;99.90;;;;;;4985383;28;20069;-78
2022/09/25 06:10:18;;;;;;;;;;;10.60;99.90;;;;;;5001245;28;19925;-81
2022/09/25 06:12:43;;;;;;;;;;;10.60;99.90;;;;;;4984838;28;19961;-78
2022/09/25 06:15:09;;;;;;;;;;;10.50;99.90;;;;;;4986706;28;19929;-80
2022/09/25 06:17:34;;;;;;;;;;;10.50;99.90;;;;;;4986306;28;19933;-81
2022/09/25 06:20:00;;;;;;;;;;;10.50;99.90;;;;;;4986387;28;20009;-79
2022/09/25 06:22:26;;;;;;;;;;;10.50;99.90;;;;;;4985638;28;20008;-80
2022/09/25 06:24:51;;;;;;;;;;;10.50;99.90;;;;;;4985255;28;20384;-79
2022/09/25 06:27:16;;;;;;;;;;;10.50;99.90;;;;;;4985045;28;19930;-80
2022/09/25 06:29:42;;;;;;;;;;;10.50;99.90;;;;;;4985907;28;20028;-80
2022/09/25 06:32:07;;;;;;;;;;;10.50;99.90;;;;;;4986480;28;19926;-80
2022/09/25 06:34:33;;;;;;;;;;;10.50;99.90;;;;;;4985647;28;19996;-81
2022/09/25 06:36:59;;;;;;;;;;;10.60;99.90;;;;;;4985298;28;19964;-81
2022/09/25 06:39:25;;;;;;;;;;;10.50;99.90;;;;;;4986470;28;19932;-81
2022/09/25 06:41:53;;;;;;;;;;;10.60;99.90;;;;;;4985558;28;20363;-80
2022/09/25 06:44:19;;;;;;;;;;;10.50;99.90;;;;;;4997368;28;19964;-81
2022/09/25 06:46:47;;;;;;;;;;;10.50;99.90;;;;;;4980579;28;20500;-80
2022/09/25 06:49:13;;;;;;;;;;;10.50;99.90;;;;;;4985966;28;19926;-81
2022/09/25 06:51:39;;;;;;;;;;;10.50;99.90;;;;;;4985867;28;19921;-80
2022/09/25 06:54:05;;;;;;;;;;;10.50;99.90;;;;;;4984785;28;20346;-80
2022/09/25 06:56:30;;;;;;;;;;;10.50;99.90;;;;;;4985469;28;19926;-81
2022/09/25 06:58:56;;;;;;;;;;;10.60;99.90;;;;;;4986477;28;19933;-80
2022/09/25 07:01:21;;;;;;;;;;;10.60;99.90;;;;;;4985980;28;20372;-80
2022/09/25 07:03:48;;;;;;;;;;;10.60;99.90;;;;;;4984441;28;19948;-79
2022/09/25 07:06:15;;;;;;;;;;;10.70;99.90;;;;;;4985721;28;19933;-79
2022/09/25 07:08:42;;;;;;;;;;;10.60;99.90;;;;;;4983289;28;19925;-77
2022/09/25 07:11:10;;;;;;;;;;;10.70;99.90;;;;;;4970137;28;19928;-79
2022/09/25 07:13:36;;;;;;;;;;;10.70;99.90;;;;;;5000087;28;20024;-80
2022/09/25 07:16:05;;;;;;;;;;;10.80;99.90;;;;;;4985634;28;20044;-81
2022/09/25 07:18:31;;;;;;;;;;;10.80;99.90;;;;;;5000766;28;20024;-80
2022/09/25 07:21:05;;;;;;;;;;;10.80;99.90;;;;;;4986155;28;19941;-80
2022/09/25 07:23:32;;;;;;;;;;;10.90;99.90;;;;;;4985619;28;19926;-82
2022/09/25 07:26:24;;;;;;;;;;;10.90;99.90;;;;;;4988064;28;19926;-80
2022/09/25 07:28:57;;;;;;;;;;;10.90;99.90;;;;;;4970023;28;19956;-80
2022/09/25 07:31:24;;;;;;;;;;;11.00;99.90;;;;;;5003825;28;19926;-82
2022/09/25 07:33:50;;;;;;;;;;;11.00;99.90;;;;;;4988887;28;19930;-83
2022/09/25 07:36:16;;;;;;;;;;;11.10;99.90;;;;;;4989211;28;19933;-82
2022/09/25 07:38:41;;;;;;;;;;;11.10;99.90;;;;;;4988864;28;19939;-81
2022/09/25 07:41:10;;;;;;;;;;;11.20;99.90;;;;;;4988552;28;19926;-79
2022/09/25 07:43:38;;;;;;;;;;;11.20;99.90;;;;;;4969746;28;19980;-81
2022/09/25 07:46:04;;;;;;;;;;;11.30;99.90;;;;;;4969046;28;19926;-80
2022/09/25 07:48:30;;;;;;;;;;;11.40;99.90;;;;;;4973633;28;20266;-81
2022/09/25 07:51:03;;;;;;;;;;;11.40;99.90;;;;;;4981849;28;19933;-80
2022/09/25 07:53:29;;;;;;;;;;;11.40;99.90;;;;;;4987339;28;19995;-81
2022/09/25 07:55:55;;;;;;;;;;;11.50;99.90;;;;;;4987607;28;20020;-78
2022/09/25 07:58:21;;;;;;;;;;;11.60;99.90;;;;;;5003985;28;20392;-79
2022/09/25 08:00:46;;;;;;;;;;;11.70;99.90;;;;;;4991473;28;20020;-79
2022/09/25 08:03:12;;;;;;;;;;;11.70;99.90;;;;;;4994905;28;19933;-80
2022/09/25 08:05:38;;;;;;;;;;;11.80;99.90;;;;;;4998512;28;19926;-79
2022/09/25 08:08:03;;;;;;;;;;;11.90;99.90;;;;;;4989042;28;19933;-78
2022/09/25 08:10:29;;;;;;;;;;;11.90;99.90;;;;;;5001588;28;19925;-79
2022/09/25 08:12:55;;;;;;;;;;;12.00;99.90;;;;;;4997109;28;19933;-78
2022/09/25 08:15:21;;;;;;;;;;;12.00;99.90;;;;;;4999647;28;20273;-80
2022/09/25 08:17:46;;;;;;;;;;;12.00;99.90;;;;;;4990791;28;20424;-77
2022/09/25 08:20:12;;;;;;;;;;;12.10;99.90;;;;;;4990945;28;19930;-78
2022/09/25 08:22:37;;;;;;;;;;;12.10;99.90;;;;;;4987348;28;20416;-76
2022/09/25 08:25:03;;;;;;;;;;;12.10;99.90;;;;;;4988504;28;19933;-83
2022/09/25 08:27:29;;;;;;;;;;;12.10;99.90;;;;;;4987987;28;19932;-80
2022/09/25 08:29:55;;;;;;;;;;;12.10;99.90;;;;;;4989096;28;20345;-80
2022/09/25 08:32:20;;;;;;;;;;;12.10;99.90;;;;;;4987722;28;20001;-79
2022/09/25 08:34:46;;;;;;;;;;;12.10;99.90;;;;;;4985117;28;20062;-79
2022/09/25 08:37:11;;;;;;;;;;;12.00;99.90;;;;;;4985020;28;19980;-80
2022/09/25 08:39:37;;;;;;;;;;;12.10;99.90;;;;;;5002009;28;20388;-80
2022/09/25 08:42:03;;;;;;;;;;;12.10;99.90;;;;;;4986680;28;19926;-81
2022/09/25 08:44:37;;;;;;;;;;;12.10;99.90;;;;;;4985055;28;19934;-81
2022/09/25 08:49:56;;;;;;;;;;;12.10;99.90;;;;;;4997408;28;20450;-78
2022/09/25 08:52:22;;;;;;;;;;;12.10;99.90;;;;;;4985581;28;19933;-78
2022/09/25 08:54:48;;;;;;;;;;;12.10;99.90;;;;;;4987544;28;19932;-78
2022/09/25 08:57:26;;;;;;;;;;;12.20;99.90;;;;;;4992581;28;19925;-78
2022/09/25 08:59:54;;;;;;;;;;;12.30;99.90;;;;;;4988196;28;20020;-80
2022/09/25 09:02:21;;;;;;;;;;;12.30;99.90;;;;;;4988845;28;19940;-79
2022/09/25 09:04:50;;;;;;;;;;;12.40;99.90;;;;;;4989915;28;19926;-80
2022/09/25 09:07:24;;;;;;;;;;;12.40;99.90;;;;;;4986009;28;19933;-79
2022/09/25 09:09:56;;;;;;;;;;;12.60;99.90;;;;;;4987846;28;20323;-80
2022/09/25 09:12:32;;;;;;;;;;;12.70;99.90;;;;;;4991360;28;19960;-79
2022/09/25 09:15:05;;;;;;;;;;;12.70;99.90;;;;;;4974777;28;19933;-80
2022/09/25 09:17:37;;;;;;;;;;;12.80;99.90;;;;;;4987340;28;19933;-80
2022/09/25 09:20:12;;;;;;;;;;;12.90;99.90;;;;;;4987427;28;20030;-79
2022/09/25 09:22:41;;;;;;;;;;;13.00;99.90;;;;;;4986005;28;20029;-77
2022/09/25 09:25:27;;;;;;;;;;;13.00;99.90;;;;;;4987476;28;20301;-77
2022/09/25 09:28:19;;;;;;;;;;;13.00;99.90;;;;;;4980967;28;19926;-77
2022/09/25 09:30:52;;;;;;;;;;;13.10;99.90;;;;;;4984948;28;19925;-77
2022/09/25 09:33:40;;;;;;;;;;;13.10;99.90;;;;;;4984229;28;19980;-81
2022/09/25 09:36:15;;;;;;;;;;;13.10;99.90;;;;;;4987435;28;20296;-77
2022/09/25 09:38:56;;;;;;;;;;;13.10;99.90;;;;;;4986331;28;19941;-77
2022/09/25 09:41:25;;;;;;;;;;;13.10;99.90;;;;;;4987166;28;19933;-77
2022/09/25 09:44:11;;;;;;;;;;;13.00;99.90;;;;;;4987108;28;19930;-77
2022/09/25 09:46:42;;;;;;;;;;;13.10;99.90;;;;;;4985459;28;20029;-77
2022/09/25 09:49:20;;;;;;;;;;;13.10;99.90;;;;;;4987462;28;19926;-77
2022/09/25 09:51:59;;;;;;;;;;;13.10;99.90;;;;;;4983973;28;20009;-77
2022/09/25 09:54:26;;;;;;;;;;;13.10;99.90;;;;;;4986699;28;20037;-77
2022/09/25 09:56:54;;;;;;;;;;;13.10;99.90;;;;;;4986692;28;19973;-77
2022/09/25 09:59:35;;;;;;;;;;;13.20;99.90;;;;;;4986372;28;19977;-77
2022/09/25 10:02:03;;;;;;;;;;;13.20;99.90;;;;;;4984394;28;19945;-79
2022/09/25 10:04:32;;;;;;;;;;;13.30;99.90;;;;;;4985070;28;19980;-78
2022/09/25 10:07:02;;;;;;;;;;;13.40;99.90;;;;;;4982726;28;19980;-78
2022/09/25 10:09:27;;;;;;;;;;;13.40;99.90;;;;;;4972354;28;20402;-78
2022/09/25 10:12:01;;;;;;;;;;;13.50;99.90;;;;;;4984658;28;20004;-78
2022/09/25 10:14:31;;;;;;;;;;;13.50;99.90;;;;;;4982525;28;19957;-78
2022/09/25 10:16:56;;;;;;;;;;;13.60;99.90;;;;;;4985333;28;19932;-77
2022/09/25 10:19:24;;;;;;;;;;;13.60;99.90;;;;;;4985448;28;19926;-78
2022/09/25 10:21:56;;;;;;;;;;;13.60;99.90;;;;;;4985316;28;19930;-77
2022/09/25 10:24:40;;;;;;;;;;;13.60;99.90;;;;;;4986100;28;20420;-77
2022/09/25 10:27:19;;;;;;;;;;;13.60;99.90;;;;;;4994750;28;19930;-77
2022/09/25 10:29:45;;;;;;;;;;;13.60;99.90;;;;;;4993512;28;20277;-78
2022/09/25 10:32:10;;;;;;;;;;;13.70;99.90;;;;;;4984429;28;19933;-77
2022/09/25 10:34:38;;;;;;;;;;;13.80;99.90;;;;;;4989854;28;19980;-78
2022/09/25 10:37:13;;;;;;;;;;;13.80;99.90;;;;;;4984692;28;19925;-78
2022/09/25 10:39:39;;;;;;;;;;;13.70;99.90;;;;;;4985288;28;19926;-77
2022/09/25 10:42:24;;;;;;;;;;;13.70;99.90;;;;;;4985882;28;19925;-77
2022/09/25 10:44:51;;;;;;;;;;;13.60;99.90;;;;;;4985343;28;19926;-80
2022/09/25 10:50:23;;;;;;;;;;;13.50;99.90;;;;;;4985936;28;20399;-78
2022/09/25 10:52:54;;;;;;;;;;;13.50;99.90;;;;;;4984818;28;19944;-77
2022/09/25 10:55:19;;;;;;;;;;;13.40;99.90;;;;;;4982242;28;19983;-76
2022/09/25 10:57:46;;;;;;;;;;;13.40;99.90;;;;;;4985720;28;20391;-77
2022/09/25 11:00:19;;;;;;;;;;;13.40;99.90;;;;;;4986086;28;19926;-77
2022/09/25 11:02:45;;;;;;;;;;;13.40;99.90;;;;;;4985414;28;19945;-77
2022/09/25 11:05:14;;;;;;;;;;;13.40;99.90;;;;;;4985539;28;19926;-77
2022/09/25 11:07:51;;;;;;;;;;;13.40;99.90;;;;;;4983876;28;19926;-77
2022/09/25 11:10:28;;;;;;;;;;;13.40;99.90;;;;;;4995940;28;19926;-77
2022/09/25 11:12:55;;;;;;;;;;;13.40;99.90;;;;;;4986872;28;20380;-77
2022/09/25 11:15:22;;;;;;;;;;;13.40;99.90;;;;;;5004338;28;19925;-77
2022/09/25 11:17:53;;;;;;;;;;;13.50;99.90;;;;;;4993786;28;20451;-77
2022/09/25 11:20:28;;;;;;;;;;;13.50;99.90;;;;;;4986859;28;19968;-77
2022/09/25 11:23:14;;;;;;;;;;;13.50;99.90;;;;;;4986280;28;19945;-77
2022/09/25 11:26:06;;;;;;;;;;;13.50;99.90;;;;;;4984123;28;19933;-77
2022/09/25 11:28:34;;;;;;;;;;;13.60;99.90;;;;;;4976254;28;19926;-82
2022/09/25 11:31:04;;;;;;;;;;;13.60;99.90;;;;;;4998902;28;19925;-78
2022/09/25 11:33:41;;;;;;;;;;;13.70;99.90;;;;;;4985050;28;19926;-79
2022/09/25 11:36:12;;;;;;;;;;;13.70;99.90;;;;;;4992122;28;19929;-78
2022/09/25 11:41:25;;;;;;;;;;;13.80;99.90;;;;;;4983519;28;19932;-78
2022/09/25 11:43:59;;;;;;;;;;;13.90;99.90;;;;;;5000823;28;20020;-78
2022/09/25 11:46:30;;;;;;;;;;;13.90;99.90;;;;;;4990631;28;20400;-79
2022/09/25 11:49:14;;;;;;;;;;;14.00;99.90;;;;;;4992926;28;20172;-78
2022/09/25 11:52:02;;;;;;;;;;;14.10;99.90;;;;;;4990771;28;20344;-78
2022/09/25 11:54:35;;;;;;;;;;;14.10;99.90;;;;;;4980984;28;19934;-78
2022/09/25 11:57:09;;;;;;;;;;;14.10;99.90;;;;;;4993933;28;19961;-79
2022/09/25 11:59:45;;;;;;;;;;;14.00;99.90;;;;;;4992146;28;19992;-79
2022/09/25 12:02:14;;;;;;;;;;;14.00;99.90;;;;;;4984689;28;19926;-79
2022/09/25 12:04:54;;;;;;;;;;;13.90;99.90;;;;;;4991945;28;19948;-79
2022/09/25 12:07:43;;;;;;;;;;;13.90;99.90;;;;;;4998481;28;20454;-78
2022/09/25 12:10:12;;;;;;;;;;;13.90;99.90;;;;;;4998744;28;20011;-78
2022/09/25 12:12:46;;;;;;;;;;;14.00;99.90;;;;;;4995771;28;19925;-78
2022/09/25 12:15:25;;;;;;;;;;;14.00;99.90;;;;;;4995719;28;19925;-78
2022/09/25 12:18:01;;;;;;;;;;;14.00;99.90;;;;;;4999246;28;19936;-78
2022/09/25 12:20:39;;;;;;;;;;;14.00;99.90;;;;;;4985771;28;19934;-79
2022/09/25 12:23:05;;;;;;;;;;;13.90;99.90;;;;;;4991501;28;19972;-78
2022/09/25 12:25:46;;;;;;;;;;;13.90;99.90;;;;;;4989472;28;20351;-79
2022/09/25 12:28:18;;;;;;;;;;;13.90;99.90;;;;;;4997341;28;19926;-78
2022/09/25 12:31:02;;;;;;;;;;;13.90;99.90;;;;;;4987547;28;20626;-79
2022/09/25 12:33:27;;;;;;;;;;;14.00;99.90;;;;;;4983798;28;19930;-78
2022/09/25 12:35:56;;;;;;;;;;;14.00;99.90;;;;;;4987400;28;20346;-79
2022/09/25 12:38:29;;;;;;;;;;;14.00;99.90;;;;;;4986902;28;20319;-78
2022/09/25 12:40:57;;;;;;;;;;;14.10;99.90;;;;;;5000246;28;19925;-79
2022/09/25 12:43:29;;;;;;;;;;;14.20;99.90;;;;;;5007234;28;19983;-79
2022/09/25 12:45:57;;;;;;;;;;;14.20;99.90;;;;;;4990602;28;19948;-79
2022/09/25 12:48:43;;;;;;;;;;;14.30;99.90;;;;;;4988299;28;20372;-79
2022/09/25 12:51:13;;;;;;;;;;;14.30;99.90;;;;;;4987168;28;19988;-79
2022/09/25 12:53:59;;;;;;;;;;;14.30;99.90;;;;;;4988171;28;19988;-78
2022/09/25 12:56:29;;;;;;;;;;;14.30;99.90;;;;;;4987365;28;19932;-78
2022/09/25 12:58:57;;;;;;;;;;;14.30;99.90;;;;;;4990503;28;19921;-79
2022/09/25 13:01:26;;;;;;;;;;;14.30;99.90;;;;;;4987033;28;19926;-78
2022/09/25 13:04:09;;;;;;;;;;;14.20;99.90;;;;;;4994919;28;19930;-78
2022/09/25 13:06:44;;;;;;;;;;;14.20;99.90;;;;;;4995196;28;19926;-78
2022/09/25 13:09:28;;;;;;;;;;;14.10;99.90;;;;;;4987310;28;20296;-78
2022/09/25 13:11:57;;;;;;;;;;;14.10;99.90;;;;;;4985677;28;19933;-77
2022/09/25 13:14:38;;;;;;;;;;;14.10;99.90;;;;;;4987275;28;20443;-78
2022/09/25 13:17:05;;;;;;;;;;;14.10;99.90;;;;;;4992301;28;19988;-78
2022/09/25 13:19:34;;;;;;;;;;;14.10;99.90;;;;;;4987495;28;19925;-78
2022/09/25 13:22:02;;;;;;;;;;;14.10;99.90;;;;;;4989516;28;19927;-80
2022/09/25 13:24:29;;;;;;;;;;;14.00;99.90;;;;;;4988171;28;19955;-79
2022/09/25 13:26:58;;;;;;;;;;;14.00;99.90;;;;;;4985726;28;19930;-79
2022/09/25 13:29:24;;;;;;;;;;;14.00;99.90;;;;;;4987832;28;19944;-77
2022/09/25 13:31:52;;;;;;;;;;;13.90;99.90;;;;;;5003812;28;19929;-78
2022/09/25 13:34:19;;;;;;;;;;;14.00;99.90;;;;;;5006133;28;19926;-78
2022/09/25 13:36:46;;;;;;;;;;;14.10;99.90;;;;;;4993031;28;19930;-79
2022/09/25 13:42:11;;;;;;;;;;;14.10;99.90;;;;;;4986681;28;20017;-77
2022/09/25 13:44:40;;;;;;;;;;;14.10;99.90;;;;;;4986242;28;19926;-78
2022/09/25 13:47:22;;;;;;;;;;;14.10;99.90;;;;;;4987105;28;20400;-77
2022/09/25 13:50:05;;;;;;;;;;;14.20;99.90;;;;;;4986524;28;20341;-79
2022/09/25 13:52:37;;;;;;;;;;;14.20;99.90;;;;;;4985627;28;19940;-79
2022/09/25 13:55:11;;;;;;;;;;;14.20;99.90;;;;;;4994526;28;19925;-78
2022/09/25 13:57:56;;;;;;;;;;;14.20;99.90;;;;;;4994568;28;20515;-78
2022/09/25 14:00:22;;;;;;;;;;;14.20;99.90;;;;;;4986921;28;20007;-78
2022/09/25 14:02:48;;;;;;;;;;;14.20;99.90;;;;;;4986819;28;19933;-79
2022/09/25 14:05:15;;;;;;;;;;;14.20;99.90;;;;;;4993849;28;19926;-86
2022/09/25 14:07:41;;;;;;;;;;;14.20;99.90;;;;;;4991908;28;20375;-86
2022/09/25 14:10:11;;;;;;;;;;;14.10;99.90;;;;;;4998828;28;19925;-82
2022/09/25 14:12:41;;;;;;;;;;;14.10;99.90;;;;;;4984556;28;19939;-82
2022/09/25 14:15:21;;;;;;;;;;;14.10;99.90;;;;;;4991516;28;19936;-87
2022/09/25 14:17:49;;;;;;;;;;;14.10;99.90;;;;;;4990033;28;19935;-86
2022/09/25 14:20:37;;;;;;;;;;;14.00;99.90;;;;;;4984380;28;19922;-81
2022/09/25 14:23:11;;;;;;;;;;;14.00;99.90;;;;;;4983780;28;19926;-79
2022/09/25 14:25:39;;;;;;;;;;;14.00;99.90;;;;;;4992179;28;19936;-84
2022/09/25 14:28:22;;;;;;;;;;;14.10;99.90;;;;;;4986207;28;19922;-84
2022/09/25 14:30:59;;;;;;;;;;;14.00;99.90;;;;;;4984548;28;19976;-93
2022/09/25 14:33:36;;;;;;;;;;;14.10;99.90;;;;;;4979595;28;20379;-84
2022/09/25 14:36:07;;;;;;;;;;;14.10;99.90;;;;;;4989328;28;19925;-82
2022/09/25 14:38:45;;;;;;;;;;;14.10;99.90;;;;;;5006416;28;20376;-86
2022/09/25 14:41:25;;;;;;;;;;;14.10;99.90;;;;;;5006021;28;20044;-85
2022/09/25 14:43:56;;;;;;;;;;;14.10;99.90;;;;;;4994693;28;19926;-82
2022/09/25 14:46:22;;;;;;;;;;;14.10;99.90;;;;;;4995341;28;19921;-85
2022/09/25 14:48:49;;;;;;;;;;;14.20;99.90;;;;;;4992070;28;20457;-85
2022/09/25 14:51:20;;;;;;;;;;;14.10;99.90;;;;;;4989444;28;20371;-85